Impacts METAR Board
IDs:

KDTW - Detroit Metro/Wayne, MI, US

Updated at: 0200 UTC 23 Sep 2018
Potential Impact None Slight Moderate High
Time 22/14Z 22/15Z 22/16Z 22/17Z 22/18Z 22/19Z 22/20Z 22/21Z 22/22Z 22/23Z 23/00Z 23/01Z 23/02Z
Temp56 58 60 60 61 62 61 61 61 60 59 57 55
Dewpt42 43 44 44 45 45 44 46 45 45 46 46 47
Altim30.33 30.34 30.33 30.32 30.32 30.29 30.28 30.26 30.26 30.24 30.24 30.24 30.24
VIS10 10 10 10 10 10 10 10 10 10 10 10 8
CIG230 230 230 32 36 40 42 42 42 95 200 -- --
CoverBKNBKNBKNBKNOVCOVCOVCBKNBKNBKNBKNSCTFEW
FltCatVFRVFRVFRVFRVFRVFRVFRVFRVFRVFRVFRVFRVFR
WX--------------------------
WDir360104050303070130110120000
WSpd11 7 9 7 7 5 4 3 4 3 0 0 0
WGst16 -- -- -- -- -- -- -- -- -- -- -- --
Raw hourly METARs
KDTW 221353Z 36011G16KT 10SM FEW030 FEW180 BKN230 13/06 A3033 RMK AO2 SLP269 T01330056
KDTW 221453Z 01007KT 10SM FEW035 FEW180 BKN230 14/06 A3034 RMK AO2 SLP273 T01440061 51015
KDTW 221553Z 04009KT 10SM SCT032 BKN230 16/07 A3033 RMK AO2 SLP271 T01560067
KDTW 221653Z 05007KT 10SM BKN032 BKN210 16/07 A3032 RMK AO2 SLP267 T01560067
KDTW 221753Z 03007KT 10SM OVC036 16/07 A3032 RMK AO2 SLP266 T01610072 10161 20122 56007
KDTW 221853Z 03005KT 10SM FEW030 OVC040 17/07 A3029 RMK AO2 SLP257 T01670072
KDTW 221953Z 07004KT 10SM OVC042 16/07 A3028 RMK AO2 SLP253 T01610067
KDTW 222053Z 13003KT 10SM BKN042 16/08 A3026 RMK AO2 SLP248 T01610078 56018
KDTW 222153Z 11004KT 10SM BKN042 BKN200 16/07 A3026 RMK AO2 SLP246 T01610072
KDTW 222253Z 12003KT 10SM FEW042 BKN095 BKN200 16/07 A3024 RMK AO2 SLP242 T01560072
KDTW 222353Z 00000KT 10SM FEW042 BKN200 15/08 A3024 RMK AO2 SLP241 T01500078 10178 20150 56006
KDTW 230053Z 00000KT 10SM FEW042 SCT200 14/08 A3024 RMK AO2 SLP240 P0000 T01390078
KDTW 230153Z 00000KT 8SM FEW042 FEW200 13/08 A3024 RMK AO2 SLP242 T01280083



Page loaded:  02:35 UTC  |   07:35 PM Pacific  |   08:35 PM Mountain  |   09:35 PM Central  |   10:35 PM Eastern

 

ADVISORIES

FORECASTS

FORECASTS

OBSERVATIONS

USER TOOLS

ABOUT US